sensor_id;sensor_type;location;lat;lon;timestamp;pressure;altitude;pressure_sealevel;temperature;humidity
9538;BME280;4807;48.024;11.726;2023-07-29T00:00:10;94739.63;;;15.24;99.01
9538;BME280;4807;48.024;11.726;2023-07-29T00:03:21;94741.53;;;15.24;99.38
9538;BME280;4807;48.024;11.726;2023-07-29T00:06:29;94737.31;;;15.28;99.08
9538;BME280;4807;48.024;11.726;2023-07-29T00:09:38;94726.22;;;15.36;98.65
9538;BME280;4807;48.024;11.726;2023-07-29T00:12:48;94724.50;;;15.30;98.13
9538;BME280;4807;48.024;11.726;2023-07-29T00:15:57;94722.28;;;15.27;98.35
9538;BME280;4807;48.024;11.726;2023-07-29T00:19:06;94731.25;;;15.09;99.67
9538;BME280;4807;48.024;11.726;2023-07-29T00:22:14;94719.34;;;15.17;99.74
9538;BME280;4807;48.024;11.726;2023-07-29T00:25:23;94724.63;;;15.23;99.78
9538;BME280;4807;48.024;11.726;2023-07-29T00:28:34;94723.44;;;15.31;99.60
9538;BME280;4807;48.024;11.726;2023-07-29T00:31:42;94720.75;;;15.31;99.43
9538;BME280;4807;48.024;11.726;2023-07-29T00:34:51;94709.41;;;15.41;99.18
9538;BME280;4807;48.024;11.726;2023-07-29T00:37:59;94713.50;;;15.43;98.74
9538;BME280;4807;48.024;11.726;2023-07-29T00:41:09;94707.19;;;15.49;98.17
9538;BME280;4807;48.024;11.726;2023-07-29T00:44:23;94710.22;;;15.53;98.02
9538;BME280;4807;48.024;11.726;2023-07-29T00:47:31;94708.81;;;15.50;98.77
9538;BME280;4807;48.024;11.726;2023-07-29T00:50:40;94710.03;;;15.54;98.57
9538;BME280;4807;48.024;11.726;2023-07-29T00:53:49;94707.44;;;15.59;98.14
9538;BME280;4807;48.024;11.726;2023-07-29T00:56:58;94715.25;;;15.61;97.67
9538;BME280;4807;48.024;11.726;2023-07-29T01:00:10;94710.22;;;15.64;97.43
9538;BME280;4807;48.024;11.726;2023-07-29T01:03:21;94703.75;;;15.77;97.29
9538;BME280;4807;48.024;11.726;2023-07-29T01:06:38;94694.16;;;15.81;96.24
9538;BME280;4807;48.024;11.726;2023-07-29T01:09:57;94699.28;;;15.83;96.02
9538;BME280;4807;48.024;11.726;2023-07-29T01:13:17;94704.78;;;15.88;96.05
9538;BME280;4807;48.024;11.726;2023-07-29T01:16:33;94705.72;;;15.82;95.63
9538;BME280;4807;48.024;11.726;2023-07-29T01:19:54;94711.44;;;15.85;95.73
9538;BME280;4807;48.024;11.726;2023-07-29T01:23:04;94712.25;;;15.86;95.31
9538;BME280;4807;48.024;11.726;2023-07-29T01:26:16;94698.03;;;15.74;95.18
9538;BME280;4807;48.024;11.726;2023-07-29T01:29:25;94701.09;;;15.65;95.59
9538;BME280;4807;48.024;11.726;2023-07-29T01:32:38;94688.56;;;15.54;95.82
9538;BME280;4807;48.024;11.726;2023-07-29T01:35:50;94690.84;;;15.51;95.72
9538;BME280;4807;48.024;11.726;2023-07-29T01:39:00;94692.31;;;15.30;96.35
9538;BME280;4807;48.024;11.726;2023-07-29T01:42:11;94687.53;;;15.20;96.86
9538;BME280;4807;48.024;11.726;2023-07-29T01:45:23;94691.72;;;15.16;96.89
9538;BME280;4807;48.024;11.726;2023-07-29T01:48:33;94689.75;;;15.12;97.43
9538;BME280;4807;48.024;11.726;2023-07-29T01:51:41;94688.97;;;15.00;97.51
9538;BME280;4807;48.024;11.726;2023-07-29T01:54:51;94687.78;;;14.96;97.49
9538;BME280;4807;48.024;11.726;2023-07-29T01:58:01;94677.88;;;14.84;98.48
9538;BME280;4807;48.024;11.726;2023-07-29T02:01:15;94683.59;;;15.00;98.00
9538;BME280;4807;48.024;11.726;2023-07-29T02:04:24;94674.75;;;14.87;97.39
9538;BME280;4807;48.024;11.726;2023-07-29T02:07:34;94680.44;;;14.79;98.50
9538;BME280;4807;48.024;11.726;2023-07-29T02:10:42;94676.63;;;14.75;98.61
9538;BME280;4807;48.024;11.726;2023-07-29T02:13:54;94677.19;;;14.77;98.94
9538;BME280;4807;48.024;11.726;2023-07-29T02:17:04;94672.06;;;14.87;98.90
9538;BME280;4807;48.024;11.726;2023-07-29T02:20:13;94677.53;;;14.93;98.24
9538;BME280;4807;48.024;11.726;2023-07-29T02:23:22;94672.41;;;14.79;99.03
9538;BME280;4807;48.024;11.726;2023-07-29T02:26:42;94675.34;;;14.89;98.75
9538;BME280;4807;48.024;11.726;2023-07-29T02:29:52;94668.69;;;14.80;98.87
9538;BME280;4807;48.024;11.726;2023-07-29T02:33:04;94665.78;;;14.82;98.23
9538;BME280;4807;48.024;11.726;2023-07-29T02:36:13;94676.38;;;14.77;98.46
9538;BME280;4807;48.024;11.726;2023-07-29T02:39:22;94685.13;;;14.72;98.60
9538;BME280;4807;48.024;11.726;2023-07-29T02:42:30;94680.00;;;14.71;98.99
9538;BME280;4807;48.024;11.726;2023-07-29T02:45:41;94687.56;;;14.74;99.04
9538;BME280;4807;48.024;11.726;2023-07-29T02:48:51;94690.47;;;14.61;98.97
9538;BME280;4807;48.024;11.726;2023-07-29T02:52:00;94680.66;;;14.55;99.54
9538;BME280;4807;48.024;11.726;2023-07-29T02:55:08;94694.53;;;14.51;99.83
9538;BME280;4807;48.024;11.726;2023-07-29T02:58:17;94691.16;;;14.56;98.97
9538;BME280;4807;48.024;11.726;2023-07-29T03:01:27;94687.19;;;14.47;99.87
9538;BME280;4807;48.024;11.726;2023-07-29T03:04:36;94694.19;;;14.48;99.13
9538;BME280;4807;48.024;11.726;2023-07-29T03:07:44;94686.47;;;14.51;99.39
9538;BME280;4807;48.024;11.726;2023-07-29T03:10:53;94690.22;;;14.50;99.17
9538;BME280;4807;48.024;11.726;2023-07-29T03:14:02;94681.59;;;14.60;99.24
9538;BME280;4807;48.024;11.726;2023-07-29T03:17:12;94682.41;;;14.61;100.00
9538;BME280;4807;48.024;11.726;2023-07-29T03:20:21;94689.88;;;14.70;99.60
9538;BME280;4807;48.024;11.726;2023-07-29T03:23:30;94697.91;;;14.70;99.42
9538;BME280;4807;48.024;11.726;2023-07-29T03:26:39;94701.78;;;14.74;99.61
9538;BME280;4807;48.024;11.726;2023-07-29T03:29:51;94699.31;;;14.84;98.48
9538;BME280;4807;48.024;11.726;2023-07-29T03:33:03;94693.25;;;14.77;98.77
9538;BME280;4807;48.024;11.726;2023-07-29T03:36:12;94685.22;;;14.89;98.11
9538;BME280;4807;48.024;11.726;2023-07-29T03:39:21;94683.16;;;14.91;96.97
9538;BME280;4807;48.024;11.726;2023-07-29T03:42:30;94677.88;;;14.84;96.99
9538;BME280;4807;48.024;11.726;2023-07-29T03:45:40;94683.72;;;14.81;97.59
9538;BME280;4807;48.024;11.726;2023-07-29T03:48:50;94676.97;;;14.91;97.34
9538;BME280;4807;48.024;11.726;2023-07-29T03:52:01;94677.06;;;15.07;96.08
9538;BME280;4807;48.024;11.726;2023-07-29T03:55:10;94666.69;;;15.11;96.01
9538;BME280;4807;48.024;11.726;2023-07-29T03:58:19;94662.94;;;15.12;96.60
9538;BME280;4807;48.024;11.726;2023-07-29T04:01:28;94676.44;;;15.17;96.24
9538;BME280;4807;48.024;11.726;2023-07-29T04:04:38;94685.66;;;15.09;96.98
9538;BME280;4807;48.024;11.726;2023-07-29T04:07:49;94673.53;;;15.18;96.80
9538;BME280;4807;48.024;11.726;2023-07-29T04:10:58;94675.72;;;15.33;96.68
9538;BME280;4807;48.024;11.726;2023-07-29T04:14:07;94680.16;;;15.39;95.99
9538;BME280;4807;48.024;11.726;2023-07-29T04:17:16;94666.59;;;15.57;95.12
9538;BME280;4807;48.024;11.726;2023-07-29T04:20:26;94656.06;;;15.68;93.90
9538;BME280;4807;48.024;11.726;2023-07-29T04:23:35;94660.00;;;15.77;94.17
9538;BME280;4807;48.024;11.726;2023-07-29T04:26:44;94652.13;;;15.87;93.49
9538;BME280;4807;48.024;11.726;2023-07-29T04:29:53;94645.41;;;16.01;93.12
9538;BME280;4807;48.024;11.726;2023-07-29T04:33:02;94641.19;;;16.05;92.57
9538;BME280;4807;48.024;11.726;2023-07-29T04:36:12;94645.59;;;16.11;93.00
9538;BME280;4807;48.024;11.726;2023-07-29T04:39:24;94638.66;;;16.15;92.13
9538;BME280;4807;48.024;11.726;2023-07-29T04:42:33;94639.59;;;16.21;91.92
9538;BME280;4807;48.024;11.726;2023-07-29T04:45:43;94637.56;;;16.45;91.10
9538;BME280;4807;48.024;11.726;2023-07-29T04:48:52;94633.47;;;16.59;90.61
9538;BME280;4807;48.024;11.726;2023-07-29T04:52:01;94626.66;;;16.68;90.30
9538;BME280;4807;48.024;11.726;2023-07-29T04:55:10;94630.72;;;16.54;89.70
9538;BME280;4807;48.024;11.726;2023-07-29T04:58:19;94629.63;;;16.55;89.67
9538;BME280;4807;48.024;11.726;2023-07-29T05:01:27;94634.28;;;16.42;90.72
9538;BME280;4807;48.024;11.726;2023-07-29T05:04:36;94641.72;;;16.35;91.09
9538;BME280;4807;48.024;11.726;2023-07-29T05:07:47;94628.81;;;16.54;89.95
9538;BME280;4807;48.024;11.726;2023-07-29T05:10:56;94624.13;;;16.78;88.99
9538;BME280;4807;48.024;11.726;2023-07-29T05:14:04;94624.47;;;17.03;88.73
9538;BME280;4807;48.024;11.726;2023-07-29T05:17:14;94619.34;;;17.45;87.40
9538;BME280;4807;48.024;11.726;2023-07-29T05:20:23;94615.38;;;17.97;86.01
9538;BME280;4807;48.024;11.726;2023-07-29T05:23:33;94613.03;;;18.37;83.44
9538;BME280;4807;48.024;11.726;2023-07-29T05:26:41;94608.47;;;18.70;81.81
9538;BME280;4807;48.024;11.726;2023-07-29T05:29:50;94605.13;;;18.99;81.21
9538;BME280;4807;48.024;11.726;2023-07-29T05:32:59;94599.00;;;19.14;79.74
9538;BME280;4807;48.024;11.726;2023-07-29T05:36:08;94599.53;;;19.11;78.81
9538;BME280;4807;48.024;11.726;2023-07-29T05:39:18;94610.25;;;18.96;78.76
9538;BME280;4807;48.024;11.726;2023-07-29T05:42:27;94613.47;;;18.98;79.35
9538;BME280;4807;48.024;11.726;2023-07-29T05:45:36;94611.31;;;18.95;79.02
9538;BME280;4807;48.024;11.726;2023-07-29T05:48:44;94615.75;;;19.11;78.58
9538;BME280;4807;48.024;11.726;2023-07-29T05:51:53;94628.25;;;19.27;78.41
9538;BME280;4807;48.024;11.726;2023-07-29T05:55:04;94627.84;;;19.56;77.70
9538;BME280;4807;48.024;11.726;2023-07-29T05:58:12;94640.06;;;19.78;76.73
9538;BME280;4807;48.024;11.726;2023-07-29T06:01:21;94632.59;;;19.38;76.62
9538;BME280;4807;48.024;11.726;2023-07-29T06:04:30;94638.13;;;19.59;76.33
9538;BME280;4807;48.024;11.726;2023-07-29T06:07:39;94629.31;;;19.26;79.02
9538;BME280;4807;48.024;11.726;2023-07-29T06:10:53;94651.63;;;18.70;80.00
9538;BME280;4807;48.024;11.726;2023-07-29T06:14:01;94659.34;;;18.34;81.62
9538;BME280;4807;48.024;11.726;2023-07-29T06:17:10;94681.44;;;18.04;82.78
9538;BME280;4807;48.024;11.726;2023-07-29T06:20:19;94691.59;;;17.97;83.77
9538;BME280;4807;48.024;11.726;2023-07-29T06:23:28;94681.97;;;17.79;84.88
9538;BME280;4807;48.024;11.726;2023-07-29T06:26:38;94655.63;;;17.81;84.88
9538;BME280;4807;48.024;11.726;2023-07-29T06:29:46;94663.13;;;17.79;85.21
9538;BME280;4807;48.024;11.726;2023-07-29T06:32:55;94653.84;;;17.70;86.17
9538;BME280;4807;48.024;11.726;2023-07-29T06:36:04;94635.50;;;17.89;85.46
9538;BME280;4807;48.024;11.726;2023-07-29T06:39:13;94641.59;;;18.06;85.90
9538;BME280;4807;48.024;11.726;2023-07-29T06:42:23;94643.31;;;18.17;86.28
9538;BME280;4807;48.024;11.726;2023-07-29T06:45:31;94653.97;;;18.34;85.77
9538;BME280;4807;48.024;11.726;2023-07-29T06:48:40;94654.84;;;18.13;85.69
9538;BME280;4807;48.024;11.726;2023-07-29T06:51:49;94673.09;;;18.06;86.18
9538;BME280;4807;48.024;11.726;2023-07-29T06:54:58;94696.06;;;17.86;86.26
9538;BME280;4807;48.024;11.726;2023-07-29T06:58:08;94712.72;;;17.62;88.13
9538;BME280;4807;48.024;11.726;2023-07-29T07:01:17;94715.91;;;17.59;88.54
9538;BME280;4807;48.024;11.726;2023-07-29T07:04:25;94717.56;;;17.43;89.43
9538;BME280;4807;48.024;11.726;2023-07-29T07:07:34;94717.44;;;17.33;89.48
9538;BME280;4807;48.024;11.726;2023-07-29T07:10:42;94717.28;;;17.23;89.78
9538;BME280;4807;48.024;11.726;2023-07-29T07:13:52;94719.19;;;17.44;89.34
9538;BME280;4807;48.024;11.726;2023-07-29T07:17:01;94716.06;;;17.52;89.33
9538;BME280;4807;48.024;11.726;2023-07-29T07:20:10;94717.94;;;17.51;89.14
9538;BME280;4807;48.024;11.726;2023-07-29T07:23:19;94709.81;;;17.68;88.38
9538;BME280;4807;48.024;11.726;2023-07-29T07:26:28;94709.19;;;18.05;88.24
9538;BME280;4807;48.024;11.726;2023-07-29T07:29:38;94703.16;;;18.19;87.57
9538;BME280;4807;48.024;11.726;2023-07-29T07:32:47;94703.66;;;18.16;87.16
9538;BME280;4807;48.024;11.726;2023-07-29T07:35:57;94706.78;;;18.30;86.69
9538;BME280;4807;48.024;11.726;2023-07-29T07:39:05;94708.38;;;18.85;85.21
9538;BME280;4807;48.024;11.726;2023-07-29T07:42:14;94707.06;;;18.92;84.81
9538;BME280;4807;48.024;11.726;2023-07-29T07:45:24;94703.00;;;18.90;84.40
9538;BME280;4807;48.024;11.726;2023-07-29T07:48:32;94689.84;;;19.40;82.39
9538;BME280;4807;48.024;11.726;2023-07-29T07:51:41;94691.50;;;19.47;81.96
9538;BME280;4807;48.024;11.726;2023-07-29T07:54:52;94675.69;;;19.70;81.04
9538;BME280;4807;48.024;11.726;2023-07-29T07:58:01;94667.63;;;19.80;80.89
9538;BME280;4807;48.024;11.726;2023-07-29T08:01:11;94664.16;;;19.38;82.65
9538;BME280;4807;48.024;11.726;2023-07-29T08:04:20;94655.25;;;19.32;82.42
9538;BME280;4807;48.024;11.726;2023-07-29T08:07:28;94649.00;;;19.27;83.26
9538;BME280;4807;48.024;11.726;2023-07-29T08:10:37;94660.06;;;19.20;84.07
9538;BME280;4807;48.024;11.726;2023-07-29T08:13:45;94659.88;;;19.37;83.11
9538;BME280;4807;48.024;11.726;2023-07-29T08:16:55;94660.53;;;19.59;81.75
9538;BME280;4807;48.024;11.726;2023-07-29T08:20:05;94665.06;;;19.49;81.63
9538;BME280;4807;48.024;11.726;2023-07-29T08:23:14;94659.06;;;19.41;80.88
9538;BME280;4807;48.024;11.726;2023-07-29T08:26:22;94668.69;;;19.74;81.16
9538;BME280;4807;48.024;11.726;2023-07-29T08:29:31;94660.94;;;20.03;79.07
9538;BME280;4807;48.024;11.726;2023-07-29T08:32:41;94666.94;;;20.20;78.36
9538;BME280;4807;48.024;11.726;2023-07-29T08:35:50;94658.63;;;20.63;77.62
9538;BME280;4807;48.024;11.726;2023-07-29T08:38:58;94659.16;;;21.10;76.33
9538;BME280;4807;48.024;11.726;2023-07-29T08:42:08;94656.72;;;21.04;73.96
9538;BME280;4807;48.024;11.726;2023-07-29T08:45:19;94662.97;;;21.19;74.06
9538;BME280;4807;48.024;11.726;2023-07-29T08:48:36;94662.88;;;21.55;73.69
9538;BME280;4807;48.024;11.726;2023-07-29T08:51:47;94669.09;;;21.60;73.45
9538;BME280;4807;48.024;11.726;2023-07-29T08:54:57;94663.78;;;21.20;73.67
9538;BME280;4807;48.024;11.726;2023-07-29T08:58:05;94661.59;;;20.86;74.81
9538;BME280;4807;48.024;11.726;2023-07-29T09:01:15;94648.06;;;21.07;74.51
9538;BME280;4807;48.024;11.726;2023-07-29T09:04:25;94653.47;;;21.32;74.69
9538;BME280;4807;48.024;11.726;2023-07-29T09:07:37;94651.59;;;21.22;74.48
9538;BME280;4807;48.024;11.726;2023-07-29T09:10:46;94648.00;;;21.47;73.39
9538;BME280;4807;48.024;11.726;2023-07-29T09:13:56;94645.09;;;22.03;71.89
9538;BME280;4807;48.024;11.726;2023-07-29T09:17:08;94644.13;;;22.23;68.94
9538;BME280;4807;48.024;11.726;2023-07-29T09:20:24;94630.84;;;22.26;71.43
9538;BME280;4807;48.024;11.726;2023-07-29T09:23:39;94648.28;;;22.93;69.53
9538;BME280;4807;48.024;11.726;2023-07-29T09:26:52;94652.56;;;22.21;70.70
9538;BME280;4807;48.024;11.726;2023-07-29T09:30:02;94654.22;;;22.56;70.75
9538;BME280;4807;48.024;11.726;2023-07-29T09:33:12;94652.31;;;22.62;71.98
9538;BME280;4807;48.024;11.726;2023-07-29T09:36:22;94656.28;;;23.61;69.62
9538;BME280;4807;48.024;11.726;2023-07-29T09:39:31;94652.59;;;23.76;65.08
9538;BME280;4807;48.024;11.726;2023-07-29T09:42:40;94655.84;;;24.58;65.87
9538;BME280;4807;48.024;11.726;2023-07-29T09:45:55;94652.56;;;24.23;62.71
9538;BME280;4807;48.024;11.726;2023-07-29T09:49:08;94654.38;;;24.84;63.11
9538;BME280;4807;48.024;11.726;2023-07-29T09:52:19;94646.19;;;25.03;59.16
9538;BME280;4807;48.024;11.726;2023-07-29T09:55:28;94650.69;;;25.26;60.75
9538;BME280;4807;48.024;11.726;2023-07-29T09:58:37;94643.03;;;25.28;58.41
9538;BME280;4807;48.024;11.726;2023-07-29T10:01:46;94642.78;;;25.11;58.13
9538;BME280;4807;48.024;11.726;2023-07-29T10:04:55;94639.63;;;25.50;58.40
9538;BME280;4807;48.024;11.726;2023-07-29T10:08:06;94646.06;;;25.54;57.38
9538;BME280;4807;48.024;11.726;2023-07-29T10:11:16;94641.00;;;25.20;57.46
9538;BME280;4807;48.024;11.726;2023-07-29T10:14:28;94638.34;;;25.61;57.68
9538;BME280;4807;48.024;11.726;2023-07-29T10:17:40;94631.53;;;26.13;54.80
9538;BME280;4807;48.024;11.726;2023-07-29T10:20:51;94629.25;;;27.01;53.62
9538;BME280;4807;48.024;11.726;2023-07-29T10:24:04;94623.09;;;26.73;53.38
9538;BME280;4807;48.024;11.726;2023-07-29T10:27:17;94626.34;;;27.20;51.86
9538;BME280;4807;48.024;11.726;2023-07-29T10:30:28;94627.34;;;26.43;53.45
9538;BME280;4807;48.024;11.726;2023-07-29T10:33:37;94633.59;;;26.57;54.59
9538;BME280;4807;48.024;11.726;2023-07-29T10:36:47;94628.41;;;26.06;55.22
9538;BME280;4807;48.024;11.726;2023-07-29T10:39:58;94621.94;;;26.52;52.39
9538;BME280;4807;48.024;11.726;2023-07-29T10:43:11;94616.22;;;25.90;54.90
9538;BME280;4807;48.024;11.726;2023-07-29T10:46:23;94610.34;;;25.97;55.32
9538;BME280;4807;48.024;11.726;2023-07-29T10:49:35;94611.09;;;26.38;55.04
9538;BME280;4807;48.024;11.726;2023-07-29T10:52:50;94600.16;;;25.75;53.96
9538;BME280;4807;48.024;11.726;2023-07-29T10:56:00;94604.66;;;26.07;56.54
9538;BME280;4807;48.024;11.726;2023-07-29T10:59:33;94597.00;;;25.95;54.33
9538;BME280;4807;48.024;11.726;2023-07-29T11:02:42;94597.50;;;26.47;53.63
9538;BME280;4807;48.024;11.726;2023-07-29T11:06:04;94595.56;;;27.06;51.47
9538;BME280;4807;48.024;11.726;2023-07-29T11:09:40;94589.72;;;26.99;50.76
9538;BME280;4807;48.024;11.726;2023-07-29T11:12:51;94597.88;;;26.32;52.33
9538;BME280;4807;48.024;11.726;2023-07-29T11:16:02;94596.09;;;26.49;53.91
9538;BME280;4807;48.024;11.726;2023-07-29T11:19:13;94597.06;;;26.53;52.55
9538;BME280;4807;48.024;11.726;2023-07-29T11:22:25;94601.56;;;26.49;53.26
9538;BME280;4807;48.024;11.726;2023-07-29T11:25:34;94588.25;;;26.20;54.90
9538;BME280;4807;48.024;11.726;2023-07-29T11:28:52;94597.56;;;26.19;53.87
9538;BME280;4807;48.024;11.726;2023-07-29T11:32:01;94584.63;;;26.11;52.84
9538;BME280;4807;48.024;11.726;2023-07-29T11:35:12;94598.25;;;26.25;52.34
9538;BME280;4807;48.024;11.726;2023-07-29T11:38:22;94583.63;;;26.79;51.90
9538;BME280;4807;48.024;11.726;2023-07-29T11:41:34;94568.34;;;26.78;49.49
9538;BME280;4807;48.024;11.726;2023-07-29T11:44:44;94589.09;;;26.79;49.88
9538;BME280;4807;48.024;11.726;2023-07-29T11:47:52;94581.78;;;27.19;49.28
9538;BME280;4807;48.024;11.726;2023-07-29T11:51:02;94579.16;;;26.83;49.53
9538;BME280;4807;48.024;11.726;2023-07-29T11:54:11;94576.91;;;26.41;50.11
9538;BME280;4807;48.024;11.726;2023-07-29T11:57:20;94591.91;;;26.16;50.81
9538;BME280;4807;48.024;11.726;2023-07-29T12:00:31;94594.31;;;24.76;53.83
9538;BME280;4807;48.024;11.726;2023-07-29T12:03:39;94593.72;;;24.46;55.55
9538;BME280;4807;48.024;11.726;2023-07-29T12:06:51;94571.13;;;24.08;56.49
9538;BME280;4807;48.024;11.726;2023-07-29T12:10:00;94580.75;;;24.19;54.88
9538;BME280;4807;48.024;11.726;2023-07-29T12:13:10;94574.78;;;25.47;53.67
9538;BME280;4807;48.024;11.726;2023-07-29T12:16:20;94569.25;;;25.66;52.43
9538;BME280;4807;48.024;11.726;2023-07-29T12:19:33;94558.09;;;26.03;49.94
9538;BME280;4807;48.024;11.726;2023-07-29T12:22:42;94547.91;;;25.95;48.82
9538;BME280;4807;48.024;11.726;2023-07-29T12:25:57;94558.38;;;26.15;48.55
9538;BME280;4807;48.024;11.726;2023-07-29T12:29:12;94546.91;;;25.91;50.42
9538;BME280;4807;48.024;11.726;2023-07-29T12:32:25;94546.50;;;25.02;51.04
9538;BME280;4807;48.024;11.726;2023-07-29T12:35:36;94543.31;;;25.27;52.52
9538;BME280;4807;48.024;11.726;2023-07-29T12:38:45;94549.59;;;25.69;51.87
9538;BME280;4807;48.024;11.726;2023-07-29T12:41:55;94535.94;;;26.05;49.05
9538;BME280;4807;48.024;11.726;2023-07-29T12:45:06;94533.84;;;26.82;47.94
9538;BME280;4807;48.024;11.726;2023-07-29T12:48:17;94532.34;;;27.78;46.57
9538;BME280;4807;48.024;11.726;2023-07-29T12:51:26;94534.75;;;27.31;46.79
9538;BME280;4807;48.024;11.726;2023-07-29T12:54:35;94525.16;;;26.36;47.95
9538;BME280;4807;48.024;11.726;2023-07-29T12:57:44;94522.56;;;25.81;48.80
9538;BME280;4807;48.024;11.726;2023-07-29T13:00:53;94527.22;;;26.30;48.41
9538;BME280;4807;48.024;11.726;2023-07-29T13:04:04;94530.22;;;26.42;48.37
9538;BME280;4807;48.024;11.726;2023-07-29T13:07:12;94521.06;;;26.69;47.96
9538;BME280;4807;48.024;11.726;2023-07-29T13:10:21;94521.91;;;26.78;47.96
9538;BME280;4807;48.024;11.726;2023-07-29T13:13:29;94529.69;;;26.40;47.72
9538;BME280;4807;48.024;11.726;2023-07-29T13:16:38;94525.94;;;25.78;50.94
9538;BME280;4807;48.024;11.726;2023-07-29T13:19:49;94527.81;;;25.91;50.31
9538;BME280;4807;48.024;11.726;2023-07-29T13:22:57;94552.06;;;24.97;52.82
9538;BME280;4807;48.024;11.726;2023-07-29T13:26:06;94587.66;;;23.27;57.92
9538;BME280;4807;48.024;11.726;2023-07-29T13:29:14;94581.16;;;22.65;60.95
9538;BME280;4807;48.024;11.726;2023-07-29T13:32:23;94576.13;;;22.14;64.29
9538;BME280;4807;48.024;11.726;2023-07-29T13:35:33;94582.47;;;22.77;62.39
9538;BME280;4807;48.024;11.726;2023-07-29T13:38:42;94585.69;;;23.08;61.66
9538;BME280;4807;48.024;11.726;2023-07-29T13:41:51;94574.19;;;23.40;61.61
9538;BME280;4807;48.024;11.726;2023-07-29T13:45:00;94586.88;;;24.11;60.07
9538;BME280;4807;48.024;11.726;2023-07-29T13:48:09;94590.16;;;23.89;55.48
9538;BME280;4807;48.024;11.726;2023-07-29T13:51:19;94581.59;;;23.58;57.37
9538;BME280;4807;48.024;11.726;2023-07-29T13:54:27;94590.22;;;23.13;59.10
9538;BME280;4807;48.024;11.726;2023-07-29T13:57:36;94584.97;;;22.30;61.86
9538;BME280;4807;48.024;11.726;2023-07-29T14:00:46;94591.13;;;22.01;64.63
9538;BME280;4807;48.024;11.726;2023-07-29T14:03:54;94587.09;;;21.99;66.46
9538;BME280;4807;48.024;11.726;2023-07-29T14:07:04;94589.25;;;22.02;66.31
9538;BME280;4807;48.024;11.726;2023-07-29T14:10:14;94588.22;;;21.88;66.36
9538;BME280;4807;48.024;11.726;2023-07-29T14:13:23;94593.72;;;21.67;66.46
9538;BME280;4807;48.024;11.726;2023-07-29T14:16:31;94595.19;;;21.45;65.93
9538;BME280;4807;48.024;11.726;2023-07-29T14:19:40;94582.81;;;21.23;66.97
9538;BME280;4807;48.024;11.726;2023-07-29T14:22:50;94579.50;;;21.37;67.83
9538;BME280;4807;48.024;11.726;2023-07-29T14:25:58;94588.69;;;21.41;67.27
9538;BME280;4807;48.024;11.726;2023-07-29T14:29:07;94585.72;;;21.42;66.67
9538;BME280;4807;48.024;11.726;2023-07-29T14:32:16;94595.97;;;21.50;65.88
9538;BME280;4807;48.024;11.726;2023-07-29T14:35:27;94596.59;;;21.27;66.41
9538;BME280;4807;48.024;11.726;2023-07-29T14:38:40;94603.06;;;21.36;66.20
9538;BME280;4807;48.024;11.726;2023-07-29T14:41:49;94604.47;;;21.23;66.22
9538;BME280;4807;48.024;11.726;2023-07-29T14:44:58;94605.84;;;21.01;69.93
9538;BME280;4807;48.024;11.726;2023-07-29T14:48:06;94617.22;;;21.03;69.69
9538;BME280;4807;48.024;11.726;2023-07-29T14:51:16;94615.63;;;20.91;71.24
9538;BME280;4807;48.024;11.726;2023-07-29T14:54:25;94622.13;;;20.70;72.91
9538;BME280;4807;48.024;11.726;2023-07-29T14:57:34;94617.28;;;20.67;74.09
9538;BME280;4807;48.024;11.726;2023-07-29T15:00:43;94625.91;;;20.69;74.92
9538;BME280;4807;48.024;11.726;2023-07-29T15:03:52;94631.31;;;20.79;74.43
9538;BME280;4807;48.024;11.726;2023-07-29T15:07:02;94615.59;;;21.07;73.55
9538;BME280;4807;48.024;11.726;2023-07-29T15:10:14;94614.50;;;21.23;72.08
9538;BME280;4807;48.024;11.726;2023-07-29T15:13:24;94618.28;;;21.17;71.24
9538;BME280;4807;48.024;11.726;2023-07-29T15:16:32;94605.28;;;21.04;72.01
9538;BME280;4807;48.024;11.726;2023-07-29T15:19:43;94605.28;;;21.24;73.04
9538;BME280;4807;48.024;11.726;2023-07-29T15:22:51;94622.56;;;21.38;72.74
9538;BME280;4807;48.024;11.726;2023-07-29T15:26:01;94624.09;;;21.59;72.42
9538;BME280;4807;48.024;11.726;2023-07-29T15:29:10;94624.66;;;21.61;70.64
9538;BME280;4807;48.024;11.726;2023-07-29T15:32:18;94628.47;;;21.50;70.40
9538;BME280;4807;48.024;11.726;2023-07-29T15:35:27;94613.78;;;21.66;70.82
9538;BME280;4807;48.024;11.726;2023-07-29T15:38:36;94599.06;;;21.83;70.34
9538;BME280;4807;48.024;11.726;2023-07-29T15:41:45;94603.81;;;22.11;69.85
9538;BME280;4807;48.024;11.726;2023-07-29T15:44:54;94615.91;;;22.29;68.66
9538;BME280;4807;48.024;11.726;2023-07-29T15:48:03;94634.38;;;22.27;69.14
9538;BME280;4807;48.024;11.726;2023-07-29T15:51:12;94653.91;;;22.63;67.72
9538;BME280;4807;48.024;11.726;2023-07-29T15:54:20;94653.84;;;22.34;68.09
9538;BME280;4807;48.024;11.726;2023-07-29T15:57:30;94663.94;;;21.64;72.02
9538;BME280;4807;48.024;11.726;2023-07-29T16:00:40;94664.22;;;21.52;72.31
9538;BME280;4807;48.024;11.726;2023-07-29T16:03:48;94665.28;;;21.61;71.45
9538;BME280;4807;48.024;11.726;2023-07-29T16:06:57;94660.44;;;21.53;72.40
9538;BME280;4807;48.024;11.726;2023-07-29T16:10:07;94656.91;;;21.53;71.74
9538;BME280;4807;48.024;11.726;2023-07-29T16:13:17;94654.13;;;21.78;71.77
9538;BME280;4807;48.024;11.726;2023-07-29T16:16:28;94655.13;;;22.02;72.47
9538;BME280;4807;48.024;11.726;2023-07-29T16:19:53;94648.59;;;22.03;70.71
9538;BME280;4807;48.024;11.726;2023-07-29T16:23:02;94647.66;;;22.28;70.39
9538;BME280;4807;48.024;11.726;2023-07-29T16:26:13;94656.97;;;22.07;70.24
9538;BME280;4807;48.024;11.726;2023-07-29T16:29:23;94663.56;;;21.86;71.29
9538;BME280;4807;48.024;11.726;2023-07-29T16:32:31;94658.81;;;21.52;72.85
9538;BME280;4807;48.024;11.726;2023-07-29T16:35:42;94661.78;;;21.51;74.18
9538;BME280;4807;48.024;11.726;2023-07-29T16:38:50;94662.59;;;21.56;73.86
9538;BME280;4807;48.024;11.726;2023-07-29T16:41:59;94651.63;;;21.87;72.67
9538;BME280;4807;48.024;11.726;2023-07-29T16:45:12;94656.56;;;21.80;73.13
9538;BME280;4807;48.024;11.726;2023-07-29T16:48:20;94663.81;;;21.94;73.16
9538;BME280;4807;48.024;11.726;2023-07-29T16:51:29;94670.31;;;21.98;73.28
9538;BME280;4807;48.024;11.726;2023-07-29T16:54:37;94680.44;;;21.67;72.52
9538;BME280;4807;48.024;11.726;2023-07-29T16:57:46;94697.59;;;21.38;73.12